sensor_id;sensor_type;location;lat;lon;timestamp;P1;durP1;ratioP1;P2;durP2;ratioP2
73776;SDS011;62088;50.240;2.696;2023-03-30T00:00:54;4.63;;;1.50;;
73776;SDS011;62088;50.240;2.696;2023-03-30T00:03:21;3.67;;;1.40;;
73776;SDS011;62088;50.240;2.696;2023-03-30T00:05:49;6.10;;;1.65;;
73776;SDS011;62088;50.240;2.696;2023-03-30T00:08:23;4.22;;;1.27;;
73776;SDS011;62088;50.240;2.696;2023-03-30T00:11:00;3.22;;;1.25;;
73776;SDS011;62088;50.240;2.696;2023-03-30T00:13:30;4.20;;;1.42;;
73776;SDS011;62088;50.240;2.696;2023-03-30T00:15:58;4.75;;;1.30;;
73776;SDS011;62088;50.240;2.696;2023-03-30T00:18:25;3.03;;;1.10;;
73776;SDS011;62088;50.240;2.696;2023-03-30T00:20:52;5.00;;;1.38;;
73776;SDS011;62088;50.240;2.696;2023-03-30T00:23:20;4.97;;;1.60;;
73776;SDS011;62088;50.240;2.696;2023-03-30T00:25:47;3.60;;;1.30;;
73776;SDS011;62088;50.240;2.696;2023-03-30T00:28:14;4.10;;;1.23;;
73776;SDS011;62088;50.240;2.696;2023-03-30T00:30:41;5.10;;;1.45;;
73776;SDS011;62088;50.240;2.696;2023-03-30T00:33:09;3.63;;;1.30;;
73776;SDS011;62088;50.240;2.696;2023-03-30T00:35:36;3.00;;;1.10;;
73776;SDS011;62088;50.240;2.696;2023-03-30T00:38:03;5.20;;;1.67;;
73776;SDS011;62088;50.240;2.696;2023-03-30T00:40:31;3.70;;;1.08;;
73776;SDS011;62088;50.240;2.696;2023-03-30T00:43:03;5.13;;;1.23;;
73776;SDS011;62088;50.240;2.696;2023-03-30T00:45:33;2.78;;;1.13;;
73776;SDS011;62088;50.240;2.696;2023-03-30T00:48:03;3.92;;;1.10;;
73776;SDS011;62088;50.240;2.696;2023-03-30T00:50:59;3.58;;;1.23;;
73776;SDS011;62088;50.240;2.696;2023-03-30T00:53:32;6.00;;;1.45;;
73776;SDS011;62088;50.240;2.696;2023-03-30T00:56:01;4.22;;;1.50;;
73776;SDS011;62088;50.240;2.696;2023-03-30T00:58:30;3.42;;;1.25;;
73776;SDS011;62088;50.240;2.696;2023-03-30T01:00:58;5.63;;;1.40;;
73776;SDS011;62088;50.240;2.696;2023-03-30T01:05:58;3.33;;;1.15;;
73776;SDS011;62088;50.240;2.696;2023-03-30T01:08:28;5.82;;;1.35;;
73776;SDS011;62088;50.240;2.696;2023-03-30T01:10:58;6.18;;;1.20;;
73776;SDS011;62088;50.240;2.696;2023-03-30T01:13:27;4.03;;;1.23;;
73776;SDS011;62088;50.240;2.696;2023-03-30T01:16:00;4.28;;;1.48;;
73776;SDS011;62088;50.240;2.696;2023-03-30T01:24:19;4.88;;;1.38;;
73776;SDS011;62088;50.240;2.696;2023-03-30T01:41:53;3.20;;;1.27;;
73776;SDS011;62088;50.240;2.696;2023-03-30T01:44:39;3.58;;;1.30;;
73776;SDS011;62088;50.240;2.696;2023-03-30T01:47:23;4.93;;;1.50;;
73776;SDS011;62088;50.240;2.696;2023-03-30T01:50:12;3.00;;;1.17;;
73776;SDS011;62088;50.240;2.696;2023-03-30T01:55:32;4.00;;;1.05;;
73776;SDS011;62088;50.240;2.696;2023-03-30T01:58:08;4.20;;;1.40;;
73776;SDS011;62088;50.240;2.696;2023-03-30T02:01:00;3.72;;;1.20;;
73776;SDS011;62088;50.240;2.696;2023-03-30T02:03:30;5.53;;;1.60;;
73776;SDS011;62088;50.240;2.696;2023-03-30T02:06:43;4.32;;;1.50;;
73776;SDS011;62088;50.240;2.696;2023-03-30T02:08:54;3.63;;;1.30;;
73776;SDS011;62088;50.240;2.696;2023-03-30T02:11:24;5.50;;;1.30;;
73776;SDS011;62088;50.240;2.696;2023-03-30T02:13:54;4.53;;;1.40;;
73776;SDS011;62088;50.240;2.696;2023-03-30T02:16:36;3.75;;;1.40;;
73776;SDS011;62088;50.240;2.696;2023-03-30T02:19:08;5.53;;;1.48;;
73776;SDS011;62088;50.240;2.696;2023-03-30T02:21:35;3.13;;;1.30;;
73776;SDS011;62088;50.240;2.696;2023-03-30T02:24:03;4.57;;;1.35;;
73776;SDS011;62088;50.240;2.696;2023-03-30T02:26:33;3.17;;;1.35;;
73776;SDS011;62088;50.240;2.696;2023-03-30T02:29:02;2.90;;;1.30;;
73776;SDS011;62088;50.240;2.696;2023-03-30T02:31:29;3.25;;;1.10;;
73776;SDS011;62088;50.240;2.696;2023-03-30T02:36:39;4.15;;;1.40;;
73776;SDS011;62088;50.240;2.696;2023-03-30T02:45:25;3.35;;;1.10;;
73776;SDS011;62088;50.240;2.696;2023-03-30T02:57:23;5.35;;;1.73;;
73776;SDS011;62088;50.240;2.696;2023-03-30T03:00:27;3.45;;;1.30;;
73776;SDS011;62088;50.240;2.696;2023-03-30T03:03:04;4.30;;;1.52;;
73776;SDS011;62088;50.240;2.696;2023-03-30T03:05:37;2.97;;;1.30;;
73776;SDS011;62088;50.240;2.696;2023-03-30T03:08:11;3.85;;;1.00;;
73776;SDS011;62088;50.240;2.696;2023-03-30T03:10:41;4.03;;;1.50;;
73776;SDS011;62088;50.240;2.696;2023-03-30T03:13:09;4.43;;;1.20;;
73776;SDS011;62088;50.240;2.696;2023-03-30T03:15:39;5.15;;;1.13;;
73776;SDS011;62088;50.240;2.696;2023-03-30T03:18:11;4.28;;;1.60;;
73776;SDS011;62088;50.240;2.696;2023-03-30T03:20:39;4.68;;;1.02;;
73776;SDS011;62088;50.240;2.696;2023-03-30T03:23:07;3.05;;;1.02;;
73776;SDS011;62088;50.240;2.696;2023-03-30T03:25:41;3.60;;;1.13;;
73776;SDS011;62088;50.240;2.696;2023-03-30T03:28:11;4.38;;;1.42;;
73776;SDS011;62088;50.240;2.696;2023-03-30T03:30:41;6.28;;;1.30;;
73776;SDS011;62088;50.240;2.696;2023-03-30T03:33:14;3.20;;;1.20;;
73776;SDS011;62088;50.240;2.696;2023-03-30T03:35:48;3.75;;;1.10;;
73776;SDS011;62088;50.240;2.696;2023-03-30T03:38:21;3.38;;;1.10;;
73776;SDS011;62088;50.240;2.696;2023-03-30T03:40:50;3.42;;;1.25;;
73776;SDS011;62088;50.240;2.696;2023-03-30T03:43:20;6.25;;;1.52;;
73776;SDS011;62088;50.240;2.696;2023-03-30T03:45:47;3.45;;;1.20;;
73776;SDS011;62088;50.240;2.696;2023-03-30T03:48:16;3.58;;;1.35;;
73776;SDS011;62088;50.240;2.696;2023-03-30T03:50:54;3.28;;;1.20;;
73776;SDS011;62088;50.240;2.696;2023-03-30T03:53:24;4.97;;;1.50;;
73776;SDS011;62088;50.240;2.696;2023-03-30T03:55:57;3.13;;;1.20;;
73776;SDS011;62088;50.240;2.696;2023-03-30T03:58:25;4.00;;;1.20;;
73776;SDS011;62088;50.240;2.696;2023-03-30T04:00:59;3.40;;;1.25;;
73776;SDS011;62088;50.240;2.696;2023-03-30T04:03:28;3.30;;;1.30;;
73776;SDS011;62088;50.240;2.696;2023-03-30T04:05:59;4.13;;;1.48;;
73776;SDS011;62088;50.240;2.696;2023-03-30T04:08:27;5.00;;;1.25;;
73776;SDS011;62088;50.240;2.696;2023-03-30T04:11:07;3.83;;;1.40;;
73776;SDS011;62088;50.240;2.696;2023-03-30T04:14:03;4.65;;;1.63;;
73776;SDS011;62088;50.240;2.696;2023-03-30T04:16:46;5.55;;;1.42;;
73776;SDS011;62088;50.240;2.696;2023-03-30T04:19:36;6.68;;;1.38;;
73776;SDS011;62088;50.240;2.696;2023-03-30T04:22:29;3.80;;;1.52;;
73776;SDS011;62088;50.240;2.696;2023-03-30T04:25:18;4.20;;;1.52;;
73776;SDS011;62088;50.240;2.696;2023-03-30T04:28:06;4.43;;;1.48;;
73776;SDS011;62088;50.240;2.696;2023-03-30T04:31:00;3.53;;;1.33;;
73776;SDS011;62088;50.240;2.696;2023-03-30T04:33:52;3.03;;;1.20;;
73776;SDS011;62088;50.240;2.696;2023-03-30T04:36:32;4.38;;;1.33;;
73776;SDS011;62088;50.240;2.696;2023-03-30T04:39:19;3.33;;;1.20;;
73776;SDS011;62088;50.240;2.696;2023-03-30T04:42:04;3.70;;;1.30;;
73776;SDS011;62088;50.240;2.696;2023-03-30T04:44:40;5.75;;;1.58;;
73776;SDS011;62088;50.240;2.696;2023-03-30T04:47:23;5.90;;;1.73;;
73776;SDS011;62088;50.240;2.696;2023-03-30T04:50:09;4.97;;;1.42;;
73776;SDS011;62088;50.240;2.696;2023-03-30T04:52:55;5.80;;;1.42;;
73776;SDS011;62088;50.240;2.696;2023-03-30T04:55:39;5.75;;;1.60;;
73776;SDS011;62088;50.240;2.696;2023-03-30T04:58:25;5.03;;;1.60;;
73776;SDS011;62088;50.240;2.696;2023-03-30T05:01:04;4.72;;;1.50;;
73776;SDS011;62088;50.240;2.696;2023-03-30T05:04:01;7.43;;;1.33;;
73776;SDS011;62088;50.240;2.696;2023-03-30T05:07:01;5.68;;;1.35;;
73776;SDS011;62088;50.240;2.696;2023-03-30T05:09:58;8.20;;;1.75;;
73776;SDS011;62088;50.240;2.696;2023-03-30T05:12:43;6.10;;;1.60;;
73776;SDS011;62088;50.240;2.696;2023-03-30T05:15:16;5.57;;;1.88;;
73776;SDS011;62088;50.240;2.696;2023-03-30T05:17:43;5.20;;;1.20;;
73776;SDS011;62088;50.240;2.696;2023-03-30T05:20:17;9.23;;;1.92;;
73776;SDS011;62088;50.240;2.696;2023-03-30T05:23:06;5.53;;;1.63;;
73776;SDS011;62088;50.240;2.696;2023-03-30T05:25:52;6.20;;;1.80;;
73776;SDS011;62088;50.240;2.696;2023-03-30T05:28:45;10.60;;;2.10;;
73776;SDS011;62088;50.240;2.696;2023-03-30T05:31:30;6.55;;;1.70;;
73776;SDS011;62088;50.240;2.696;2023-03-30T05:34:24;7.07;;;1.58;;
73776;SDS011;62088;50.240;2.696;2023-03-30T05:37:07;8.60;;;2.00;;
73776;SDS011;62088;50.240;2.696;2023-03-30T05:39:58;9.55;;;2.35;;
73776;SDS011;62088;50.240;2.696;2023-03-30T05:42:41;6.55;;;1.80;;
73776;SDS011;62088;50.240;2.696;2023-03-30T05:45:18;6.88;;;1.77;;
73776;SDS011;62088;50.240;2.696;2023-03-30T05:48:00;7.00;;;1.60;;
73776;SDS011;62088;50.240;2.696;2023-03-30T05:50:51;8.50;;;1.67;;
73776;SDS011;62088;50.240;2.696;2023-03-30T05:53:28;5.80;;;1.45;;
73776;SDS011;62088;50.240;2.696;2023-03-30T05:56:02;4.88;;;1.30;;
73776;SDS011;62088;50.240;2.696;2023-03-30T05:59:05;11.32;;;2.65;;
73776;SDS011;62088;50.240;2.696;2023-03-30T06:01:55;6.00;;;1.42;;
73776;SDS011;62088;50.240;2.696;2023-03-30T06:04:25;8.95;;;2.05;;
73776;SDS011;62088;50.240;2.696;2023-03-30T06:06:53;6.43;;;1.80;;
73776;SDS011;62088;50.240;2.696;2023-03-30T06:09:20;9.98;;;2.30;;
73776;SDS011;62088;50.240;2.696;2023-03-30T06:11:49;7.80;;;1.67;;
73776;SDS011;62088;50.240;2.696;2023-03-30T06:14:21;7.63;;;1.38;;
73776;SDS011;62088;50.240;2.696;2023-03-30T06:17:17;13.05;;;2.08;;
73776;SDS011;62088;50.240;2.696;2023-03-30T06:19:44;6.43;;;1.45;;
73776;SDS011;62088;50.240;2.696;2023-03-30T06:22:11;7.88;;;1.80;;
73776;SDS011;62088;50.240;2.696;2023-03-30T06:24:50;4.18;;;1.15;;
73776;SDS011;62088;50.240;2.696;2023-03-30T06:27:19;6.75;;;1.15;;
73776;SDS011;62088;50.240;2.696;2023-03-30T06:29:47;8.18;;;1.63;;
73776;SDS011;62088;50.240;2.696;2023-03-30T06:32:14;7.05;;;1.45;;
73776;SDS011;62088;50.240;2.696;2023-03-30T06:35:05;5.88;;;1.65;;
73776;SDS011;62088;50.240;2.696;2023-03-30T06:37:33;7.78;;;1.33;;
73776;SDS011;62088;50.240;2.696;2023-03-30T06:40:04;10.55;;;2.55;;
73776;SDS011;62088;50.240;2.696;2023-03-30T06:42:44;3.42;;;0.90;;
73776;SDS011;62088;50.240;2.696;2023-03-30T06:45:36;5.93;;;1.15;;
73776;SDS011;62088;50.240;2.696;2023-03-30T06:48:03;5.93;;;1.10;;
73776;SDS011;62088;50.240;2.696;2023-03-30T06:50:36;5.25;;;1.20;;
73776;SDS011;62088;50.240;2.696;2023-03-30T06:53:25;6.05;;;1.30;;
73776;SDS011;62088;50.240;2.696;2023-03-30T06:55:54;7.50;;;1.67;;
73776;SDS011;62088;50.240;2.696;2023-03-30T06:58:24;7.20;;;1.70;;
73776;SDS011;62088;50.240;2.696;2023-03-30T07:00:53;5.22;;;1.40;;
73776;SDS011;62088;50.240;2.696;2023-03-30T07:03:24;5.28;;;1.15;;
73776;SDS011;62088;50.240;2.696;2023-03-30T07:06:07;4.10;;;1.23;;
73776;SDS011;62088;50.240;2.696;2023-03-30T07:08:37;8.05;;;1.48;;
73776;SDS011;62088;50.240;2.696;2023-03-30T07:11:08;7.35;;;1.23;;
73776;SDS011;62088;50.240;2.696;2023-03-30T07:13:38;9.23;;;1.40;;
73776;SDS011;62088;50.240;2.696;2023-03-30T07:16:05;4.57;;;1.33;;
73776;SDS011;62088;50.240;2.696;2023-03-30T07:18:33;7.40;;;1.50;;
73776;SDS011;62088;50.240;2.696;2023-03-30T07:21:00;4.50;;;1.33;;
73776;SDS011;62088;50.240;2.696;2023-03-30T07:23:34;7.65;;;1.60;;
73776;SDS011;62088;50.240;2.696;2023-03-30T07:26:01;7.15;;;1.35;;
73776;SDS011;62088;50.240;2.696;2023-03-30T07:28:48;6.20;;;1.42;;
73776;SDS011;62088;50.240;2.696;2023-03-30T07:31:17;7.38;;;1.50;;
73776;SDS011;62088;50.240;2.696;2023-03-30T07:33:47;6.93;;;1.55;;
73776;SDS011;62088;50.240;2.696;2023-03-30T07:36:19;9.02;;;1.80;;
73776;SDS011;62088;50.240;2.696;2023-03-30T07:38:46;8.02;;;1.50;;
73776;SDS011;62088;50.240;2.696;2023-03-30T07:41:14;5.03;;;1.58;;
73776;SDS011;62088;50.240;2.696;2023-03-30T07:43:44;6.05;;;1.52;;
73776;SDS011;62088;50.240;2.696;2023-03-30T07:46:12;7.63;;;1.88;;
73776;SDS011;62088;50.240;2.696;2023-03-30T07:48:43;8.30;;;1.67;;
73776;SDS011;62088;50.240;2.696;2023-03-30T07:51:11;9.30;;;1.77;;
73776;SDS011;62088;50.240;2.696;2023-03-30T07:53:50;10.55;;;2.05;;
73776;SDS011;62088;50.240;2.696;2023-03-30T07:56:26;9.45;;;2.20;;
73776;SDS011;62088;50.240;2.696;2023-03-30T07:58:57;6.88;;;2.28;;
73776;SDS011;62088;50.240;2.696;2023-03-30T08:01:31;7.47;;;1.80;;
73776;SDS011;62088;50.240;2.696;2023-03-30T08:04:18;8.35;;;1.70;;
73776;SDS011;62088;50.240;2.696;2023-03-30T08:06:47;7.80;;;2.13;;
73776;SDS011;62088;50.240;2.696;2023-03-30T08:09:15;10.23;;;2.08;;
73776;SDS011;62088;50.240;2.696;2023-03-30T08:11:43;7.10;;;1.83;;
73776;SDS011;62088;50.240;2.696;2023-03-30T08:14:10;8.43;;;1.90;;
73776;SDS011;62088;50.240;2.696;2023-03-30T08:16:37;6.53;;;1.73;;
73776;SDS011;62088;50.240;2.696;2023-03-30T08:19:05;8.18;;;2.08;;
73776;SDS011;62088;50.240;2.696;2023-03-30T08:21:32;8.50;;;2.00;;
73776;SDS011;62088;50.240;2.696;2023-03-30T08:23:59;13.10;;;2.72;;
73776;SDS011;62088;50.240;2.696;2023-03-30T08:26:26;9.98;;;2.20;;
73776;SDS011;62088;50.240;2.696;2023-03-30T08:28:54;9.10;;;2.30;;
73776;SDS011;62088;50.240;2.696;2023-03-30T08:31:21;10.07;;;2.08;;
73776;SDS011;62088;50.240;2.696;2023-03-30T08:33:48;10.35;;;2.50;;
73776;SDS011;62088;50.240;2.696;2023-03-30T08:36:15;11.80;;;2.08;;
73776;SDS011;62088;50.240;2.696;2023-03-30T08:38:42;13.10;;;2.53;;
73776;SDS011;62088;50.240;2.696;2023-03-30T08:46:30;10.40;;;2.30;;
73776;SDS011;62088;50.240;2.696;2023-03-30T08:48:59;8.98;;;2.15;;
73776;SDS011;62088;50.240;2.696;2023-03-30T08:51:31;11.57;;;2.85;;
73776;SDS011;62088;50.240;2.696;2023-03-30T08:54:02;11.30;;;2.33;;
73776;SDS011;62088;50.240;2.696;2023-03-30T08:56:34;9.68;;;2.65;;
73776;SDS011;62088;50.240;2.696;2023-03-30T09:04:13;14.27;;;2.80;;
73776;SDS011;62088;50.240;2.696;2023-03-30T09:06:53;11.35;;;2.22;;
73776;SDS011;62088;50.240;2.696;2023-03-30T09:09:29;12.68;;;3.17;;
73776;SDS011;62088;50.240;2.696;2023-03-30T09:12:01;11.85;;;2.60;;
73776;SDS011;62088;50.240;2.696;2023-03-30T09:14:36;9.60;;;2.30;;
73776;SDS011;62088;50.240;2.696;2023-03-30T09:17:29;7.70;;;2.00;;
73776;SDS011;62088;50.240;2.696;2023-03-30T09:20:06;18.15;;;3.35;;
73776;SDS011;62088;50.240;2.696;2023-03-30T09:22:40;11.63;;;2.40;;
73776;SDS011;62088;50.240;2.696;2023-03-30T09:25:15;9.68;;;2.30;;
73776;SDS011;62088;50.240;2.696;2023-03-30T09:30:38;13.15;;;2.72;;
73776;SDS011;62088;50.240;2.696;2023-03-30T09:33:13;10.55;;;2.30;;
73776;SDS011;62088;50.240;2.696;2023-03-30T09:35:46;11.55;;;2.45;;
73776;SDS011;62088;50.240;2.696;2023-03-30T09:38:24;12.07;;;2.75;;
73776;SDS011;62088;50.240;2.696;2023-03-30T09:46:14;14.00;;;2.95;;
73776;SDS011;62088;50.240;2.696;2023-03-30T09:48:43;12.77;;;3.15;;
73776;SDS011;62088;50.240;2.696;2023-03-30T09:51:25;10.00;;;2.65;;
73776;SDS011;62088;50.240;2.696;2023-03-30T09:53:57;12.98;;;2.88;;
73776;SDS011;62088;50.240;2.696;2023-03-30T09:56:42;14.47;;;3.07;;
73776;SDS011;62088;50.240;2.696;2023-03-30T09:59:29;11.25;;;2.33;;
73776;SDS011;62088;50.240;2.696;2023-03-30T10:02:08;11.35;;;2.53;;
73776;SDS011;62088;50.240;2.696;2023-03-30T10:07:22;11.82;;;2.38;;
73776;SDS011;62088;50.240;2.696;2023-03-30T10:09:53;14.00;;;2.72;;
73776;SDS011;62088;50.240;2.696;2023-03-30T10:12:22;11.82;;;2.58;;
73776;SDS011;62088;50.240;2.696;2023-03-30T10:14:54;9.50;;;2.20;;
73776;SDS011;62088;50.240;2.696;2023-03-30T10:17:26;13.45;;;2.40;;
73776;SDS011;62088;50.240;2.696;2023-03-30T10:20:15;11.95;;;2.80;;
73776;SDS011;62088;50.240;2.696;2023-03-30T10:25:22;11.40;;;2.83;;
73776;SDS011;62088;50.240;2.696;2023-03-30T10:30:54;9.25;;;2.15;;
73776;SDS011;62088;50.240;2.696;2023-03-30T10:33:29;13.32;;;2.33;;
73776;SDS011;62088;50.240;2.696;2023-03-30T10:35:58;11.40;;;2.80;;
73776;SDS011;62088;50.240;2.696;2023-03-30T10:38:29;15.32;;;2.90;;
73776;SDS011;62088;50.240;2.696;2023-03-30T10:41:00;15.95;;;2.83;;
73776;SDS011;62088;50.240;2.696;2023-03-30T10:43:33;8.73;;;2.13;;
73776;SDS011;62088;50.240;2.696;2023-03-30T10:46:15;12.38;;;3.13;;
73776;SDS011;62088;50.240;2.696;2023-03-30T10:54:17;12.40;;;2.03;;
73776;SDS011;62088;50.240;2.696;2023-03-30T10:57:29;13.48;;;2.60;;
73776;SDS011;62088;50.240;2.696;2023-03-30T11:05:10;7.28;;;1.85;;
73776;SDS011;62088;50.240;2.696;2023-03-30T11:07:44;8.38;;;1.80;;
73776;SDS011;62088;50.240;2.696;2023-03-30T11:13:34;10.32;;;2.17;;
73776;SDS011;62088;50.240;2.696;2023-03-30T11:15:57;9.57;;;1.98;;
73776;SDS011;62088;50.240;2.696;2023-03-30T11:18:46;10.88;;;2.42;;
73776;SDS011;62088;50.240;2.696;2023-03-30T11:21:30;8.85;;;2.05;;
73776;SDS011;62088;50.240;2.696;2023-03-30T11:24:14;9.30;;;2.08;;
73776;SDS011;62088;50.240;2.696;2023-03-30T11:26:58;12.93;;;2.33;;
73776;SDS011;62088;50.240;2.696;2023-03-30T11:29:58;11.32;;;2.10;;
73776;SDS011;62088;50.240;2.696;2023-03-30T11:32:43;7.55;;;2.05;;
73776;SDS011;62088;50.240;2.696;2023-03-30T11:41:19;6.20;;;1.25;;
73776;SDS011;62088;50.240;2.696;2023-03-30T11:43:54;4.35;;;1.20;;
73776;SDS011;62088;50.240;2.696;2023-03-30T11:46:23;5.55;;;1.30;;
73776;SDS011;62088;50.240;2.696;2023-03-30T11:49:13;6.05;;;1.00;;
73776;SDS011;62088;50.240;2.696;2023-03-30T11:52:06;4.72;;;1.42;;
73776;SDS011;62088;50.240;2.696;2023-03-30T11:55:05;4.05;;;1.20;;
73776;SDS011;62088;50.240;2.696;2023-03-30T12:03:28;11.43;;;6.05;;
73776;SDS011;62088;50.240;2.696;2023-03-30T12:06:25;7.95;;;4.68;;
73776;SDS011;62088;50.240;2.696;2023-03-30T12:14:27;13.73;;;4.20;;
73776;SDS011;62088;50.240;2.696;2023-03-30T12:17:52;13.25;;;7.80;;
73776;SDS011;62088;50.240;2.696;2023-03-30T12:25:43;11.95;;;2.65;;
73776;SDS011;62088;50.240;2.696;2023-03-30T12:28:16;12.18;;;2.63;;
73776;SDS011;62088;50.240;2.696;2023-03-30T12:33:43;13.00;;;2.10;;
73776;SDS011;62088;50.240;2.696;2023-03-30T12:38:54;8.23;;;2.40;;
73776;SDS011;62088;50.240;2.696;2023-03-30T12:41:24;13.20;;;2.75;;
73776;SDS011;62088;50.240;2.696;2023-03-30T12:44:01;7.32;;;1.85;;
73776;SDS011;62088;50.240;2.696;2023-03-30T12:49:25;7.43;;;2.00;;
73776;SDS011;62088;50.240;2.696;2023-03-30T12:52:05;8.65;;;2.00;;
73776;SDS011;62088;50.240;2.696;2023-03-30T12:54:53;10.70;;;2.65;;
73776;SDS011;62088;50.240;2.696;2023-03-30T12:57:35;10.52;;;2.53;;
73776;SDS011;62088;50.240;2.696;2023-03-30T13:00:22;11.40;;;2.20;;
73776;SDS011;62088;50.240;2.696;2023-03-30T13:05:43;8.32;;;2.03;;
73776;SDS011;62088;50.240;2.696;2023-03-30T13:08:24;7.70;;;2.05;;
73776;SDS011;62088;50.240;2.696;2023-03-30T13:11:12;11.40;;;2.40;;
73776;SDS011;62088;50.240;2.696;2023-03-30T13:13:57;9.63;;;2.63;;
73776;SDS011;62088;50.240;2.696;2023-03-30T13:29:40;6.60;;;1.67;;
73776;SDS011;62088;50.240;2.696;2023-03-30T13:32:17;7.13;;;1.90;;
73776;SDS011;62088;50.240;2.696;2023-03-30T13:34:50;9.05;;;2.05;;
73776;SDS011;62088;50.240;2.696;2023-03-30T13:43:21;7.15;;;1.67;;
73776;SDS011;62088;50.240;2.696;2023-03-30T13:48:54;6.07;;;1.73;;
73776;SDS011;62088;50.240;2.696;2023-03-30T13:51:27;8.82;;;1.73;;
73776;SDS011;62088;50.240;2.696;2023-03-30T13:56:31;7.68;;;1.63;;
73776;SDS011;62088;50.240;2.696;2023-03-30T14:01:32;7.82;;;2.05;;
73776;SDS011;62088;50.240;2.696;2023-03-30T14:04:00;7.03;;;2.08;;
73776;SDS011;62088;50.240;2.696;2023-03-30T14:06:30;7.53;;;1.80;;
73776;SDS011;62088;50.240;2.696;2023-03-30T14:14:15;10.65;;;2.10;;
73776;SDS011;62088;50.240;2.696;2023-03-30T14:16:45;8.88;;;1.92;;
73776;SDS011;62088;50.240;2.696;2023-03-30T14:19:49;7.82;;;2.30;;
73776;SDS011;62088;50.240;2.696;2023-03-30T14:22:15;5.57;;;1.60;;
73776;SDS011;62088;50.240;2.696;2023-03-30T14:24:59;8.10;;;1.70;;
73776;SDS011;62088;50.240;2.696;2023-03-30T14:27:31;9.50;;;1.92;;
73776;SDS011;62088;50.240;2.696;2023-03-30T14:30:01;5.05;;;1.63;;
73776;SDS011;62088;50.240;2.696;2023-03-30T14:32:32;9.82;;;2.15;;
73776;SDS011;62088;50.240;2.696;2023-03-30T14:35:03;7.60;;;1.77;;
73776;SDS011;62088;50.240;2.696;2023-03-30T14:37:31;7.22;;;1.92;;
73776;SDS011;62088;50.240;2.696;2023-03-30T14:40:00;5.40;;;1.40;;
73776;SDS011;62088;50.240;2.696;2023-03-30T14:42:30;6.65;;;1.48;;
73776;SDS011;62088;50.240;2.696;2023-03-30T14:45:01;7.32;;;1.80;;
73776;SDS011;62088;50.240;2.696;2023-03-30T14:47:28;6.75;;;1.88;;
73776;SDS011;62088;50.240;2.696;2023-03-30T14:49:56;6.43;;;1.55;;
73776;SDS011;62088;50.240;2.696;2023-03-30T14:52:31;6.65;;;1.85;;
73776;SDS011;62088;50.240;2.696;2023-03-30T14:55:03;8.00;;;1.60;;
73776;SDS011;62088;50.240;2.696;2023-03-30T14:57:39;7.60;;;1.95;;
73776;SDS011;62088;50.240;2.696;2023-03-30T15:00:12;7.70;;;1.80;;
73776;SDS011;62088;50.240;2.696;2023-03-30T15:02:54;9.45;;;2.10;;
73776;SDS011;62088;50.240;2.696;2023-03-30T15:05:31;7.72;;;2.20;;
73776;SDS011;62088;50.240;2.696;2023-03-30T15:08:02;7.13;;;2.13;;
73776;SDS011;62088;50.240;2.696;2023-03-30T15:10:34;8.10;;;2.20;;
73776;SDS011;62088;50.240;2.696;2023-03-30T15:16:19;9.45;;;2.17;;
73776;SDS011;62088;50.240;2.696;2023-03-30T15:18:49;7.28;;;2.15;;
73776;SDS011;62088;50.240;2.696;2023-03-30T15:21:18;9.95;;;2.35;;
73776;SDS011;62088;50.240;2.696;2023-03-30T15:23:46;8.60;;;2.28;;
73776;SDS011;62088;50.240;2.696;2023-03-30T15:26:17;11.65;;;2.47;;
73776;SDS011;62088;50.240;2.696;2023-03-30T15:28:46;9.85;;;2.35;;
73776;SDS011;62088;50.240;2.696;2023-03-30T15:31:18;11.98;;;2.33;;
73776;SDS011;62088;50.240;2.696;2023-03-30T15:38:11;14.00;;;3.47;;
73776;SDS011;62088;50.240;2.696;2023-03-30T15:44:08;9.20;;;2.63;;
73776;SDS011;62088;50.240;2.696;2023-03-30T15:46:37;6.70;;;1.98;;
73776;SDS011;62088;50.240;2.696;2023-03-30T15:49:05;6.22;;;1.60;;
73776;SDS011;62088;50.240;2.696;2023-03-30T15:51:35;5.10;;;1.40;;
73776;SDS011;62088;50.240;2.696;2023-03-30T15:54:21;3.17;;;1.00;;
73776;SDS011;62088;50.240;2.696;2023-03-30T16:24:38;6.43;;;1.80;;
73776;SDS011;62088;50.240;2.696;2023-03-30T16:27:08;6.60;;;1.67;;
73776;SDS011;62088;50.240;2.696;2023-03-30T16:29:36;5.65;;;1.75;;
73776;SDS011;62088;50.240;2.696;2023-03-30T16:32:04;6.57;;;1.88;;
73776;SDS011;62088;50.240;2.696;2023-03-30T16:34:31;4.70;;;1.40;;
73776;SDS011;62088;50.240;2.696;2023-03-30T16:36:58;6.40;;;1.52;;
73776;SDS011;62088;50.240;2.696;2023-03-30T16:39:28;10.02;;;1.65;;
73776;SDS011;62088;50.240;2.696;2023-03-30T16:41:58;6.55;;;1.58;;
73776;SDS011;62088;50.240;2.696;2023-03-30T16:44:26;5.25;;;1.60;;
73776;SDS011;62088;50.240;2.696;2023-03-30T16:46:56;4.63;;;1.63;;
73776;SDS011;62088;50.240;2.696;2023-03-30T16:49:23;5.53;;;1.50;;
73776;SDS011;62088;50.240;2.696;2023-03-30T16:51:53;5.88;;;1.73;;
73776;SDS011;62088;50.240;2.696;2023-03-30T16:54:23;6.18;;;1.92;;
73776;SDS011;62088;50.240;2.696;2023-03-30T16:56:58;7.03;;;2.33;;
73776;SDS011;62088;50.240;2.696;2023-03-30T16:59:27;6.90;;;1.77;;
73776;SDS011;62088;50.240;2.696;2023-03-30T17:01:56;12.10;;;7.30;;
73776;SDS011;62088;50.240;2.696;2023-03-30T17:04:24;11.82;;;7.40;;
73776;SDS011;62088;50.240;2.696;2023-03-30T17:06:51;8.73;;;3.60;;
73776;SDS011;62088;50.240;2.696;2023-03-30T17:09:21;7.88;;;2.88;;
73776;SDS011;62088;50.240;2.696;2023-03-30T17:11:48;8.63;;;2.03;;
73776;SDS011;62088;50.240;2.696;2023-03-30T17:14:16;5.32;;;1.55;;
73776;SDS011;62088;50.240;2.696;2023-03-30T17:16:45;12.90;;;2.90;;
73776;SDS011;62088;50.240;2.696;2023-03-30T17:19:13;5.93;;;2.00;;
73776;SDS011;62088;50.240;2.696;2023-03-30T17:21:40;7.93;;;2.38;;
73776;SDS011;62088;50.240;2.696;2023-03-30T17:24:11;9.52;;;4.68;;
73776;SDS011;62088;50.240;2.696;2023-03-30T17:26:40;23.42;;;12.13;;
73776;SDS011;62088;50.240;2.696;2023-03-30T17:29:08;20.10;;;10.32;;
73776;SDS011;62088;50.240;2.696;2023-03-30T17:31:35;20.73;;;12.02;;
73776;SDS011;62088;50.240;2.696;2023-03-30T17:34:04;16.60;;;6.25;;
73776;SDS011;62088;50.240;2.696;2023-03-30T17:36:32;9.55;;;4.10;;
73776;SDS011;62088;50.240;2.696;2023-03-30T17:38:59;9.43;;;5.40;;
73776;SDS011;62088;50.240;2.696;2023-03-30T17:41:30;11.90;;;5.88;;
73776;SDS011;62088;50.240;2.696;2023-03-30T17:43:59;11.75;;;5.07;;
73776;SDS011;62088;50.240;2.696;2023-03-30T17:46:26;12.75;;;5.38;;
73776;SDS011;62088;50.240;2.696;2023-03-30T17:48:53;10.65;;;4.18;;
73776;SDS011;62088;50.240;2.696;2023-03-30T17:51:20;10.23;;;3.80;;
73776;SDS011;62088;50.240;2.696;2023-03-30T17:53:47;8.05;;;3.33;;
73776;SDS011;62088;50.240;2.696;2023-03-30T17:56:14;9.77;;;3.55;;
73776;SDS011;62088;50.240;2.696;2023-03-30T17:58:41;10.18;;;3.20;;
73776;SDS011;62088;50.240;2.696;2023-03-30T18:01:08;10.10;;;2.92;;
73776;SDS011;62088;50.240;2.696;2023-03-30T18:03:37;8.30;;;2.90;;
73776;SDS011;62088;50.240;2.696;2023-03-30T18:06:05;7.80;;;2.65;;
73776;SDS011;62088;50.240;2.696;2023-03-30T18:08:33;7.10;;;2.20;;
73776;SDS011;62088;50.240;2.696;2023-03-30T18:11:01;10.38;;;3.40;;
73776;SDS011;62088;50.240;2.696;2023-03-30T18:13:30;7.95;;;2.95;;
73776;SDS011;62088;50.240;2.696;2023-03-30T18:15:57;9.80;;;3.17;;
73776;SDS011;62088;50.240;2.696;2023-03-30T18:18:26;10.88;;;3.28;;
73776;SDS011;62088;50.240;2.696;2023-03-30T18:20:56;10.15;;;3.75;;
73776;SDS011;62088;50.240;2.696;2023-03-30T18:23:32;6.60;;;3.05;;
73776;SDS011;62088;50.240;2.696;2023-03-30T18:26:00;5.90;;;2.45;;
73776;SDS011;62088;50.240;2.696;2023-03-30T18:28:29;7.45;;;2.33;;
73776;SDS011;62088;50.240;2.696;2023-03-30T18:30:56;9.07;;;4.07;;
73776;SDS011;62088;50.240;2.696;2023-03-30T18:33:26;14.90;;;6.05;;
73776;SDS011;62088;50.240;2.696;2023-03-30T18:35:54;15.02;;;8.07;;
73776;SDS011;62088;50.240;2.696;2023-03-30T18:38:30;10.93;;;5.75;;